Aérodrome :
LOGIN :

S'inscrire | Disclaimer

   EN    FR    IT 

 










Légende :    VFR   VFR Marginal   IFR   IFR Intensif   IFR Très Intensif
Visi : 
Plafond : 
>= 8 km
>= 3000ft
5 à 8 km
1000 à 3000 ft
1500m à 5 km
500 à 1000 ft
800 à 1500m
200 à 500 ft
< 800m
< 200 ft
Symboles :   Orages  Brouillard  Fortes neiges  Fortes précipitations  Vent > 20 kt
SIGMETs :   Divers  Orages  Givrage  Turbulence  Onde Orograph.  Cendres Volcan.






- Altitude de l'aérodrome : 1910 ft
- Code IATA : RDZ


LFCR - Rodez

DERNIER METAR :
  • 121330Z AUTO 22008KT 9999 -RA BKN009 OVC019 05/05 Q1006 TEMPO 2000 -RADZ BECMG BKN013

METARs EXPIRÉS :
  • 121300Z AUTO 22010KT 9999 -RA BKN008 OVC015 05/05 Q1006 TEMPO 2000 -RADZ BKN004
  • 121230Z AUTO 20007KT 7000 -DZ OVC008 05/05 Q1007 TEMPO 2000 -RADZ BKN004
  • 121200Z AUTO 20007KT 7000 -DZ BKN007 OVC012 05/05 Q1008 TEMPO 2000 -RADZ BKN004
  • 121130Z AUTO 16005KT 5000 -RA BR OVC005 04/04 Q1009 NOSIG
  • 121100Z AUTO 13007KT 5000 -RA BR OVC006 04/04 Q1009 NOSIG

TAF TAF LFCR
Valide du 12 à 12h jusqu'au 13 à 12h UTC


121100Z 1212/1312 19010KT 9999 BKN013
TEMPO 1212/1215 2000 -RADZ BKN004
BECMG 1216/1218 -RA BKN017
TEMPO 1217/1304 3000 RA BKN003
BECMG 1223/1301 26013KT
BECMG 1302/1304 26020G35KT
PROB40
TEMPO 1306/1310 29025G48KT



MET'MAP, la Météo Aéronautique d'un coup d'oeil ! - Copyright ORBIFLY Décembre 2007 - Disclaimer

ORBIFLY MET'MAP TEAM :

Programmation & Développement : Alexandra Zaïnal
Sur une idée originale de : Baudouin d'Aumeries
Assistance à la programmation : Marc-Olivier Méhu
Soutien technique & logistique : Manuel Goepfert

Contact : metmap@orbifly.com




SOURCES & CREDITS :

   NOAA